Time;durP1;ratioP1;P1;durP2;ratioP2;P2;SDS_P1;SDS_P2;PMS_P1;PMS_P2;Temp;Humidity;BMP_temperature;BMP_pressure;BME280_temperature;BME280_humidity;BME280_pressure;Samples;Min_cycle;Max_cycle;Signal;HPM_P1;HPM_P2
2024/04/11 00:00:43;;;;;;;1999.90;999.90;;;15.10;99.90;;;;;;5310613;26;20033;-78
2024/04/11 00:03:09;;;;;;;1999.90;999.90;;;15.10;99.90;;;;;;5311694;26;20022;-78
2024/04/11 00:05:36;;;;;;;1999.90;999.90;;;15.10;99.90;;;;;;5307093;26;20037;-78
2024/04/11 00:08:02;;;;;;;1999.90;999.90;;;15.10;99.90;;;;;;5346312;26;20378;-78
2024/04/11 00:10:29;;;;;;;1999.90;999.90;;;15.10;99.90;;;;;;5345944;26;20510;-79
2024/04/11 00:12:55;;;;;;;1999.90;999.90;;;15.10;99.90;;;;;;5346125;26;20029;-78
2024/04/11 00:15:21;;;;;;;1999.90;999.90;;;15.10;99.90;;;;;;5342536;26;20025;-79
2024/04/11 00:17:47;;;;;;;1999.90;999.90;;;15.10;99.90;;;;;;5311698;27;20033;-78
2024/04/11 00:20:13;;;;;;;1999.90;999.90;;;15.00;99.90;;;;;;5310725;26;20030;-79
2024/04/11 00:22:39;;;;;;;1999.90;999.90;;;15.00;99.90;;;;;;5311055;27;20050;-78
2024/04/11 00:25:05;;;;;;;1999.90;999.90;;;15.00;99.90;;;;;;5311592;27;20046;-78
2024/04/11 00:27:33;;;;;;;1999.90;999.90;;;15.10;99.90;;;;;;5311215;26;20038;-78
2024/04/11 00:29:59;;;;;;;1999.90;999.90;;;15.00;99.90;;;;;;5311243;26;20037;-78
2024/04/11 00:32:25;;;;;;;1999.90;999.90;;;15.00;99.90;;;;;;5311473;26;20054;-78
2024/04/11 00:34:53;;;;;;;1999.90;999.90;;;15.00;99.90;;;;;;5311424;27;20377;-78
2024/04/11 00:37:22;;;;;;;1999.90;999.90;;;15.10;99.90;;;;;;5311410;26;20041;-78
2024/04/11 00:39:48;;;;;;;1999.90;999.90;;;15.10;99.90;;;;;;5311292;26;20033;-78
2024/04/11 00:42:14;;;;;;;1999.90;999.90;;;15.10;99.90;;;;;;5310794;26;20038;-78
2024/04/11 00:44:40;;;;;;;1999.90;999.90;;;15.20;99.90;;;;;;5310602;26;20030;-78
2024/04/11 00:47:09;;;;;;;1060.05;557.00;;;15.20;99.90;;;;;;5331821;26;20040;-78
2024/04/11 00:49:36;;;;;;;1999.90;999.90;;;15.20;99.90;;;;;;5343773;26;20481;-78
2024/04/11 00:52:03;;;;;;;225.05;213.23;;;15.10;99.90;;;;;;5308891;26;20420;-78
2024/04/11 00:54:29;;;;;;;1059.07;556.10;;;15.10;99.90;;;;;;5309457;27;20482;-78
2024/04/11 00:56:59;;;;;;;1040.50;538.53;;;15.10;99.90;;;;;;5280588;27;20037;-78
2024/04/11 00:59:25;;;;;;;1033.80;532.15;;;15.20;99.90;;;;;;5311516;26;20491;-78
2024/04/11 01:01:51;;;;;;;92.55;87.95;;;15.20;99.90;;;;;;5308228;26;20046;-77
2024/04/11 01:04:17;;;;;;;534.88;283.15;;;15.10;99.90;;;;;;5310727;26;20376;-78
2024/04/11 01:09:44;;;;;;;57.35;54.42;;;15.00;99.90;;;;;;5310952;27;20373;-78
2024/04/11 01:12:14;;;;;;;50.13;47.53;;;15.00;99.90;;;;;;5311582;26;20041;-78
2024/04/11 01:14:41;;;;;;;62.83;59.63;;;15.00;99.90;;;;;;5310816;26;20499;-78
2024/04/11 01:17:07;;;;;;;59.97;56.95;;;15.00;99.90;;;;;;5309875;26;20050;-79
2024/04/11 01:19:33;;;;;;;180.88;171.52;;;14.90;99.90;;;;;;5311319;26;20433;-78
2024/04/11 01:22:00;;;;;;;68.38;64.93;;;14.90;99.90;;;;;;5310332;26;20034;-78
2024/04/11 01:24:27;;;;;;;82.38;78.13;;;14.90;99.90;;;;;;5310979;27;20025;-78
2024/04/11 01:26:54;;;;;;;43.00;40.88;;;14.90;99.90;;;;;;5310235;26;20619;-78
2024/04/11 01:29:20;;;;;;;43.13;41.05;;;14.90;99.90;;;;;;5310813;27;20029;-78
2024/04/11 01:31:46;;;;;;;107.82;102.43;;;14.90;99.90;;;;;;5310060;26;20045;-78
2024/04/11 01:34:12;;;;;;;66.75;63.47;;;14.90;99.90;;;;;;5314270;26;20049;-78
2024/04/11 01:36:38;;;;;;;46.90;44.55;;;14.80;99.90;;;;;;5311558;26;20033;-78
2024/04/11 01:39:09;;;;;;;109.50;103.95;;;14.70;99.90;;;;;;5313517;27;20033;-79
2024/04/11 01:41:37;;;;;;;85.93;81.57;;;14.70;99.90;;;;;;5314081;26;20037;-78
2024/04/11 01:44:05;;;;;;;85.40;81.00;;;14.70;99.90;;;;;;5313649;27;20034;-78
2024/04/11 01:46:31;;;;;;;52.15;49.55;;;14.70;99.90;;;;;;5325635;26;20053;-78
2024/04/11 01:48:59;;;;;;;66.53;62.83;;;14.80;99.90;;;;;;5347798;26;20029;-78
2024/04/11 01:51:26;;;;;;;81.47;77.28;;;14.70;99.90;;;;;;5345466;26;20029;-78
2024/04/11 01:53:53;;;;;;;85.40;81.20;;;14.80;99.90;;;;;;5348147;26;20029;-78
2024/04/11 01:56:20;;;;;;;60.47;57.55;;;14.70;99.90;;;;;;5330976;26;20034;-78
2024/04/11 01:58:46;;;;;;;30.13;28.73;;;14.60;99.90;;;;;;5313397;27;20026;-78
2024/04/11 02:01:13;;;;;;;68.65;65.35;;;14.50;99.90;;;;;;5312779;26;20054;-78
2024/04/11 02:03:39;;;;;;;25.55;24.35;;;14.60;99.90;;;;;;5324858;26;20045;-78
2024/04/11 02:06:07;;;;;;;53.25;50.70;;;14.60;99.90;;;;;;5325173;26;20009;-79
2024/04/11 02:08:36;;;;;;;42.88;40.85;;;14.70;99.90;;;;;;5325614;26;20045;-76
2024/04/11 02:11:03;;;;;;;107.53;102.38;;;14.60;99.90;;;;;;5346205;26;20064;-78
2024/04/11 02:13:29;;;;;;;163.60;155.60;;;14.60;99.90;;;;;;5344431;26;20029;-78
2024/04/11 02:15:55;;;;;;;122.32;116.38;;;14.70;99.90;;;;;;5328402;26;20510;-78
2024/04/11 02:18:21;;;;;;;89.40;85.10;;;14.60;99.90;;;;;;5312088;26;20029;-78
2024/04/11 02:20:53;;;;;;;42.85;40.83;;;14.60;99.90;;;;;;5310887;26;20061;-78
2024/04/11 02:23:19;;;;;;;59.88;57.03;;;14.60;99.90;;;;;;5313510;26;20029;-78
2024/04/11 02:25:46;;;;;;;45.60;43.35;;;14.60;99.90;;;;;;5335241;26;20037;-78
2024/04/11 02:28:13;;;;;;;38.47;36.67;;;14.60;99.90;;;;;;5311382;26;20057;-78
2024/04/11 02:30:39;;;;;;;44.30;42.20;;;14.60;99.90;;;;;;5308161;26;20057;-78
2024/04/11 02:33:06;;;;;;;40.72;38.80;;;14.60;99.90;;;;;;5311995;26;20033;-78
2024/04/11 02:35:32;;;;;;;43.55;41.45;;;14.70;99.90;;;;;;5315975;26;20042;-78
2024/04/11 02:37:58;;;;;;;42.83;40.80;;;14.70;99.90;;;;;;5347003;26;20433;-78
2024/04/11 02:40:25;;;;;;;31.42;29.98;;;14.80;99.90;;;;;;5346859;26;20676;-78
2024/04/11 02:42:53;;;;;;;31.60;30.13;;;14.80;99.90;;;;;;5346471;26;20033;-78
2024/04/11 02:45:21;;;;;;;36.22;34.50;;;14.80;99.90;;;;;;5343786;26;20024;-78
2024/04/11 02:47:48;;;;;;;31.15;29.65;;;14.80;99.90;;;;;;5343672;26;20033;-77
2024/04/11 02:50:15;;;;;;;36.38;34.65;;;14.80;99.90;;;;;;5344685;26;20024;-78
2024/04/11 02:52:41;;;;;;;34.15;32.55;;;14.80;99.90;;;;;;5345461;26;20034;-78
2024/04/11 02:55:16;;;;;;;41.10;39.13;;;14.80;99.90;;;;;;5345423;26;20033;-78
2024/04/11 02:57:43;;;;;;;41.88;39.83;;;14.70;99.90;;;;;;5345549;26;20077;-78
2024/04/11 03:00:16;;;;;;;27.55;26.27;;;14.70;99.90;;;;;;5346406;26;20029;-78
2024/04/11 03:02:42;;;;;;;31.00;29.55;;;14.70;99.90;;;;;;5312443;27;20030;-78
2024/04/11 03:05:08;;;;;;;31.08;29.58;;;14.60;99.90;;;;;;5301574;26;20033;-78
2024/04/11 03:07:35;;;;;;;38.90;37.05;;;14.60;99.90;;;;;;5312701;27;20041;-79
2024/04/11 03:10:01;;;;;;;48.10;45.70;;;14.60;99.90;;;;;;5312393;26;20029;-78
2024/04/11 03:12:28;;;;;;;41.53;39.05;;;14.60;99.90;;;;;;5309951;26;20347;-78
2024/04/11 03:14:54;;;;;;;37.92;36.03;;;14.60;99.90;;;;;;5312501;26;20029;-78
2024/04/11 03:17:20;;;;;;;36.75;34.97;;;14.50;99.90;;;;;;5310888;26;20109;-78
2024/04/11 03:19:46;;;;;;;30.05;28.63;;;14.50;99.90;;;;;;5311528;26;20029;-79
2024/04/11 03:22:12;;;;;;;44.35;42.20;;;14.50;99.90;;;;;;5311727;26;20041;-78
2024/04/11 03:24:38;;;;;;;48.70;46.30;;;14.40;99.90;;;;;;5312411;27;20033;-78
2024/04/11 03:27:05;;;;;;;36.13;34.42;;;14.30;99.90;;;;;;5311881;26;20037;-78
2024/04/11 03:29:31;;;;;;;130.48;124.03;;;14.30;99.90;;;;;;5310056;27;20038;-77
2024/04/11 03:31:57;;;;;;;151.95;144.45;;;14.40;99.90;;;;;;5311109;26;20041;-78
2024/04/11 03:34:23;;;;;;;122.53;116.47;;;14.40;99.90;;;;;;5312424;27;20038;-78
2024/04/11 03:36:49;;;;;;;162.23;154.30;;;14.40;99.90;;;;;;5327795;26;20455;-78
2024/04/11 03:39:15;;;;;;;103.38;98.40;;;14.40;99.90;;;;;;5345739;26;20033;-78
2024/04/11 03:41:52;;;;;;;124.10;118.15;;;14.40;99.90;;;;;;5323723;26;20029;-78
2024/04/11 03:44:18;;;;;;;76.28;72.65;;;14.40;99.90;;;;;;5311581;26;20029;-78
2024/04/11 03:46:44;;;;;;;75.72;72.13;;;14.40;99.90;;;;;;5327045;26;20043;-78
2024/04/11 03:49:10;;;;;;;134.60;128.05;;;14.50;99.90;;;;;;5346369;26;20032;-78
2024/04/11 03:51:41;;;;;;;56.15;53.47;;;14.50;99.90;;;;;;5345900;26;20041;-78
2024/04/11 03:54:09;;;;;;;49.53;47.20;;;14.50;99.90;;;;;;5345593;26;20037;-78
2024/04/11 03:56:35;;;;;;;36.72;35.00;;;14.50;99.90;;;;;;5326243;26;20037;-78
2024/04/11 03:59:03;;;;;;;48.20;45.92;;;14.50;99.90;;;;;;5310396;26;20029;-78
2024/04/11 04:01:30;;;;;;;32.92;31.42;;;14.50;99.90;;;;;;5311167;26;20372;-79
2024/04/11 04:04:01;;;;;;;30.77;29.33;;;14.50;99.90;;;;;;5309997;27;20041;-78
2024/04/11 04:06:27;;;;;;;28.95;27.60;;;14.50;99.90;;;;;;5311346;26;20045;-78
2024/04/11 04:08:54;;;;;;;40.75;38.65;;;14.50;99.90;;;;;;5311727;27;20029;-79
2024/04/11 04:11:21;;;;;;;51.45;49.03;;;14.60;99.90;;;;;;5312248;26;20449;-78
2024/04/11 04:13:53;;;;;;;80.53;76.00;;;14.60;99.90;;;;;;5311298;27;20038;-78
2024/04/11 04:16:19;;;;;;;82.43;77.93;;;14.60;99.90;;;;;;5310570;26;20478;-78
2024/04/11 04:18:47;;;;;;;89.90;84.95;;;14.50;99.90;;;;;;5312471;26;20033;-78
2024/04/11 04:21:13;;;;;;;75.97;71.65;;;14.60;99.90;;;;;;5311119;26;20033;-78
2024/04/11 04:23:42;;;;;;;116.28;109.97;;;14.60;99.90;;;;;;5311527;27;20038;-78
2024/04/11 04:26:08;;;;;;;62.50;59.40;;;14.70;99.90;;;;;;5310180;26;20046;-78
2024/04/11 04:28:39;;;;;;;64.03;60.90;;;14.60;99.90;;;;;;5309238;27;20033;-78
2024/04/11 04:31:15;;;;;;;53.42;50.78;;;14.70;99.90;;;;;;5310361;26;20065;-78
2024/04/11 04:33:47;;;;;;;46.25;43.97;;;14.60;99.90;;;;;;5311494;27;20029;-78
2024/04/11 04:36:22;;;;;;;52.58;50.05;;;14.60;99.90;;;;;;5320663;26;20044;-78
2024/04/11 04:38:52;;;;;;;34.75;33.13;;;14.60;99.90;;;;;;5316485;26;20037;-78
2024/04/11 04:41:18;;;;;;;34.42;32.83;;;14.60;99.90;;;;;;5326725;26;20037;-78
2024/04/11 04:43:53;;;;;;;37.95;36.15;;;14.60;99.90;;;;;;5310873;27;20033;-78
2024/04/11 04:46:20;;;;;;;35.63;33.95;;;14.60;99.90;;;;;;5320226;26;20032;-78
2024/04/11 04:48:46;;;;;;;31.88;30.38;;;14.60;99.90;;;;;;5345940;26;20032;-78
2024/04/11 04:51:13;;;;;;;44.85;42.55;;;14.50;99.90;;;;;;5345029;26;20049;-77
2024/04/11 04:53:40;;;;;;;42.47;40.38;;;14.50;99.90;;;;;;5345416;26;20041;-78
2024/04/11 04:56:07;;;;;;;39.40;37.50;;;14.40;99.90;;;;;;5331177;26;20038;-78
2024/04/11 04:58:33;;;;;;;51.33;48.90;;;14.40;99.90;;;;;;5311796;26;20038;-78
2024/04/11 05:01:00;;;;;;;40.38;38.45;;;14.50;99.90;;;;;;5308865;26;20033;-78
2024/04/11 05:03:28;;;;;;;41.88;39.88;;;14.50;99.90;;;;;;5310718;26;20038;-78
2024/04/11 05:05:55;;;;;;;47.13;44.78;;;14.60;99.90;;;;;;5310945;26;20030;-77
2024/04/11 05:08:23;;;;;;;33.40;31.80;;;14.50;99.90;;;;;;5314015;26;20033;-79
2024/04/11 05:10:55;;;;;;;37.08;35.30;;;14.50;99.90;;;;;;5314412;26;20030;-78
2024/04/11 05:13:26;;;;;;;43.03;40.95;;;14.50;99.90;;;;;;5313538;27;20503;-78
2024/04/11 05:16:06;;;;;;;40.13;38.13;;;14.50;99.90;;;;;;5313251;26;20049;-79
2024/04/11 05:18:39;;;;;;;40.53;38.53;;;14.50;99.90;;;;;;5314952;26;20033;-78
2024/04/11 05:21:20;;;;;;;37.30;35.47;;;14.40;99.90;;;;;;5311617;26;20114;-78
2024/04/11 05:23:46;;;;;;;43.40;41.22;;;14.40;99.90;;;;;;5313924;27;20375;-78
2024/04/11 05:26:15;;;;;;;40.45;38.50;;;14.50;99.90;;;;;;5313668;26;20034;-78
2024/04/11 05:28:45;;;;;;;46.10;43.85;;;14.50;99.90;;;;;;5313788;27;20034;-78
2024/04/11 05:31:17;;;;;;;43.50;41.40;;;14.50;99.90;;;;;;5312919;26;20490;-78
2024/04/11 05:33:53;;;;;;;46.60;44.35;;;14.50;99.90;;;;;;5311609;27;20479;-78
2024/04/11 05:36:24;;;;;;;40.72;38.75;;;14.50;99.90;;;;;;5321207;26;20061;-77
2024/04/11 05:38:51;;;;;;;38.83;36.92;;;14.60;99.90;;;;;;5347621;26;20033;-78
2024/04/11 05:41:17;;;;;;;41.28;39.33;;;14.60;99.90;;;;;;5331284;26;20030;-78
2024/04/11 05:43:43;;;;;;;47.15;44.90;;;14.60;99.90;;;;;;5313629;26;20033;-78
2024/04/11 05:46:10;;;;;;;57.08;54.33;;;14.60;99.90;;;;;;5318209;26;20049;-78
2024/04/11 05:48:37;;;;;;;47.63;45.33;;;14.60;99.90;;;;;;5348022;26;20040;-78
2024/04/11 05:51:05;;;;;;;75.32;71.68;;;14.70;99.90;;;;;;5345871;26;20036;-78
2024/04/11 05:53:37;;;;;;;62.78;59.78;;;14.60;99.90;;;;;;5347827;26;20041;-78
2024/04/11 05:56:10;;;;;;;40.38;38.47;;;14.60;99.90;;;;;;5332922;26;20033;-78
2024/04/11 05:58:40;;;;;;;60.97;58.08;;;14.60;99.90;;;;;;5311716;27;20371;-78
2024/04/11 06:01:08;;;;;;;62.95;59.95;;;14.70;99.90;;;;;;5313603;26;20037;-78
2024/04/11 06:03:40;;;;;;;65.95;62.78;;;14.60;99.90;;;;;;5313253;27;20030;-78
2024/04/11 06:06:13;;;;;;;49.70;47.33;;;14.70;99.90;;;;;;5313796;26;20034;-78
2024/04/11 06:08:48;;;;;;;50.28;47.70;;;14.70;99.90;;;;;;5313434;26;20034;-78
2024/04/11 06:11:17;;;;;;;65.43;62.10;;;14.70;99.90;;;;;;5312166;26;20037;-78
2024/04/11 06:13:43;;;;;;;69.85;66.50;;;14.70;99.90;;;;;;5314088;26;20042;-78
2024/04/11 06:16:10;;;;;;;43.83;41.75;;;14.70;99.90;;;;;;5312309;26;20478;-78
2024/04/11 06:18:36;;;;;;;37.75;35.95;;;14.70;99.90;;;;;;5310370;27;20029;-78
2024/04/11 06:21:04;;;;;;;67.03;63.83;;;14.80;99.90;;;;;;5311811;26;20033;-78
2024/04/11 06:23:31;;;;;;;43.10;41.03;;;14.80;99.90;;;;;;5312566;26;20030;-78
2024/04/11 06:26:02;;;;;;;50.08;47.67;;;14.80;99.90;;;;;;5313844;26;20037;-78
2024/04/11 06:28:28;;;;;;;42.33;40.30;;;14.80;99.90;;;;;;5312991;26;20034;-78
2024/04/11 06:30:54;;;;;;;43.30;41.25;;;14.80;99.90;;;;;;5310700;26;20050;-78
2024/04/11 06:33:23;;;;;;;39.92;38.03;;;14.80;99.90;;;;;;5312948;27;20422;-78
2024/04/11 06:35:51;;;;;;;44.33;42.17;;;14.80;99.90;;;;;;5315676;26;20042;-78
2024/04/11 06:38:20;;;;;;;65.15;61.33;;;14.90;99.90;;;;;;5346825;26;20033;-78
2024/04/11 06:40:50;;;;;;;60.17;56.95;;;14.80;99.90;;;;;;5338620;26;20381;-78
2024/04/11 06:43:16;;;;;;;49.10;46.75;;;14.70;99.90;;;;;;5313990;26;20029;-78
2024/04/11 06:45:46;;;;;;;44.33;42.17;;;14.70;99.90;;;;;;5313397;26;20364;-78
2024/04/11 06:48:19;;;;;;;63.20;59.80;;;14.70;99.90;;;;;;5345892;26;20028;-77
2024/04/11 06:50:46;;;;;;;38.22;36.40;;;14.70;99.90;;;;;;5346882;26;20036;-78
2024/04/11 06:53:12;;;;;;;38.45;36.63;;;14.70;99.90;;;;;;5316226;26;20144;-78
2024/04/11 06:55:38;;;;;;;37.78;36.00;;;14.80;99.90;;;;;;5339919;26;20041;-78
2024/04/11 06:58:10;;;;;;;35.17;33.53;;;14.90;99.90;;;;;;5312812;27;20466;-78
2024/04/11 07:00:36;;;;;;;36.10;34.38;;;14.90;99.90;;;;;;5311622;26;20050;-78
2024/04/11 07:03:13;;;;;;;42.03;39.55;;;15.00;99.90;;;;;;5313780;26;20037;-78
2024/04/11 07:05:55;;;;;;;35.78;34.08;;;14.90;99.90;;;;;;5313332;26;20030;-78
2024/04/11 07:08:32;;;;;;;29.00;27.60;;;15.00;99.90;;;;;;5312207;27;20025;-78
2024/04/11 07:11:18;;;;;;;30.65;29.23;;;15.00;99.90;;;;;;5285476;26;20338;-78
2024/04/11 07:13:48;;;;;;;38.35;35.90;;;15.00;99.90;;;;;;5312365;26;20040;-78
2024/04/11 07:16:16;;;;;;;36.70;34.95;;;15.00;99.90;;;;;;5311407;26;20470;-78
2024/04/11 07:18:48;;;;;;;39.47;37.63;;;15.00;99.90;;;;;;5312861;26;20030;-78
2024/04/11 07:21:17;;;;;;;40.53;38.55;;;15.00;99.90;;;;;;5311777;26;20037;-77
2024/04/11 07:23:45;;;;;;;44.80;42.65;;;15.00;99.90;;;;;;5310417;27;20033;-78
2024/04/11 07:26:20;;;;;;;39.08;37.22;;;15.00;99.90;;;;;;5311676;26;20763;-77
2024/04/11 07:28:46;;;;;;;36.97;35.22;;;15.10;99.90;;;;;;5312011;26;20489;-77
2024/04/11 07:31:14;;;;;;;43.30;41.22;;;15.10;99.90;;;;;;5311217;26;20033;-77
2024/04/11 07:33:41;;;;;;;36.70;34.97;;;15.10;99.90;;;;;;5312057;26;20033;-77
2024/04/11 07:36:09;;;;;;;36.55;34.75;;;15.10;99.90;;;;;;5312241;26;20029;-77
2024/04/11 07:38:38;;;;;;;48.28;45.92;;;15.20;99.90;;;;;;5312067;26;20053;-76
2024/04/11 07:41:17;;;;;;;55.85;53.15;;;15.10;99.90;;;;;;5311756;26;20494;-78
2024/04/11 07:43:51;;;;;;;46.85;44.60;;;15.10;99.90;;;;;;5312610;26;20034;-78
2024/04/11 07:46:18;;;;;;;45.10;42.80;;;15.20;99.90;;;;;;5320937;26;20053;-77
2024/04/11 07:48:47;;;;;;;43.65;41.60;;;15.20;99.90;;;;;;5346377;26;20032;-77
2024/04/11 07:51:20;;;;;;;45.80;43.58;;;15.20;99.90;;;;;;5346013;26;20037;-77
2024/04/11 07:53:47;;;;;;;33.17;31.63;;;15.30;99.90;;;;;;5346772;26;20380;-77
2024/04/11 07:56:19;;;;;;;36.13;34.42;;;15.50;99.90;;;;;;5331452;26;20030;-77
2024/04/11 07:58:49;;;;;;;47.47;45.22;;;15.50;99.90;;;;;;5312707;26;20029;-77
2024/04/11 08:01:16;;;;;;;53.30;50.78;;;15.50;99.90;;;;;;5312113;26;20041;-77
2024/04/11 08:03:43;;;;;;;158.48;150.75;;;15.50;99.90;;;;;;5310154;27;20107;-77
2024/04/11 08:06:10;;;;;;;277.10;262.38;;;15.60;99.90;;;;;;5310777;26;20382;-78
2024/04/11 08:08:40;;;;;;;283.20;268.05;;;15.60;99.90;;;;;;5311690;27;20110;-77
2024/04/11 08:11:10;;;;;;;253.77;240.60;;;15.70;99.90;;;;;;5311316;26;20037;-77
2024/04/11 08:13:37;;;;;;;150.43;143.00;;;15.80;99.90;;;;;;5312781;26;20033;-78
2024/04/11 08:16:07;;;;;;;48.85;46.47;;;15.90;99.90;;;;;;5310783;26;20045;-78
2024/04/11 08:18:34;;;;;;;42.78;40.72;;;15.90;99.90;;;;;;5310704;26;20029;-78
2024/04/11 08:21:03;;;;;;;33.83;32.17;;;16.00;99.90;;;;;;5308826;26;20070;-77
2024/04/11 08:23:29;;;;;;;38.15;36.25;;;16.10;99.90;;;;;;5312154;26;20474;-77
2024/04/11 08:25:55;;;;;;;43.72;41.63;;;16.10;99.90;;;;;;5312092;26;20045;-77
2024/04/11 08:28:21;;;;;;;34.67;33.00;;;16.10;99.90;;;;;;5311385;26;20482;-78
2024/04/11 08:30:48;;;;;;;34.42;32.80;;;16.10;99.90;;;;;;5310503;26;20375;-78
2024/04/11 08:33:20;;;;;;;38.40;36.58;;;16.10;99.90;;;;;;5311355;27;20033;-76
2024/04/11 08:35:52;;;;;;;35.67;33.97;;;16.10;99.90;;;;;;5313120;26;20402;-78
2024/04/11 08:38:22;;;;;;;50.28;47.88;;;16.20;99.90;;;;;;5344940;26;20040;-78
2024/04/11 08:40:49;;;;;;;67.03;63.87;;;16.30;99.90;;;;;;5335306;26;20364;-78
2024/04/11 08:43:20;;;;;;;45.70;43.53;;;16.30;99.90;;;;;;5312449;26;20119;-78
2024/04/11 08:45:46;;;;;;;34.60;33.00;;;16.30;99.90;;;;;;5282841;26;20041;-78
2024/04/11 08:48:12;;;;;;;27.13;25.88;;;16.40;99.90;;;;;;5343803;26;20363;-78
2024/04/11 08:50:44;;;;;;;29.98;28.58;;;16.40;99.90;;;;;;5344607;26;20005;-77
2024/04/11 08:53:10;;;;;;;42.28;40.33;;;16.30;99.90;;;;;;5346184;26;20024;-78
2024/04/11 08:55:37;;;;;;;74.05;69.97;;;16.30;99.90;;;;;;5339264;26;20046;-78
2024/04/11 08:58:05;;;;;;;41.88;39.92;;;16.30;99.90;;;;;;5309320;27;20030;-78
2024/04/11 09:00:31;;;;;;;32.08;30.55;;;16.30;99.90;;;;;;5310365;26;20056;-78
2024/04/11 09:02:58;;;;;;;62.25;59.28;;;16.40;99.90;;;;;;5280784;27;20026;-78
2024/04/11 09:05:24;;;;;;;89.97;85.53;;;16.50;99.90;;;;;;5311538;26;20050;-78
2024/04/11 09:07:51;;;;;;;102.07;96.93;;;16.50;99.90;;;;;;5310928;26;20022;-78
2024/04/11 09:10:18;;;;;;;84.30;80.25;;;16.60;99.90;;;;;;5280730;26;20037;-78
2024/04/11 09:12:48;;;;;;;37.40;35.55;;;16.60;99.90;;;;;;5310873;27;20033;-77
2024/04/11 09:15:18;;;;;;;37.85;36.05;;;16.80;99.90;;;;;;5311129;26;20613;-77
2024/04/11 09:17:45;;;;;;;30.10;28.70;;;16.90;99.90;;;;;;5310367;26;20026;-79
2024/04/11 09:20:15;;;;;;;56.53;53.53;;;17.20;99.90;;;;;;5308636;26;20027;-78
2024/04/11 09:22:50;;;;;;;104.30;99.13;;;17.50;99.90;;;;;;5310921;26;20026;-78
2024/04/11 09:25:22;;;;;;;38.47;36.58;;;17.70;99.90;;;;;;5308927;26;20026;-78
2024/04/11 09:27:54;;;;;;;82.18;78.07;;;17.80;99.90;;;;;;5343430;26;20028;-78
2024/04/11 09:30:20;;;;;;;47.58;45.33;;;17.90;99.90;;;;;;5341770;26;20363;-78
2024/04/11 09:32:49;;;;;;;113.35;107.88;;;17.90;99.90;;;;;;5311061;26;20022;-78
2024/04/11 09:35:17;;;;;;;92.95;88.25;;;17.80;99.90;;;;;;5309924;26;20017;-77
2024/04/11 09:37:44;;;;;;;64.80;61.75;;;17.90;99.90;;;;;;5338876;26;20064;-78
2024/04/11 09:40:19;;;;;;;40.95;38.97;;;18.10;99.90;;;;;;5341503;26;20034;-78
2024/04/11 09:42:46;;;;;;;28.05;26.75;;;18.20;99.90;;;;;;5342080;26;20025;-78
2024/04/11 09:45:18;;;;;;;26.70;25.45;;;18.50;99.90;;;;;;5344480;26;20021;-78
2024/04/11 09:47:47;;;;;;;40.50;38.60;;;18.70;99.90;;;;;;5341100;26;20037;-78
2024/04/11 09:50:16;;;;;;;86.85;82.70;;;18.80;99.90;;;;;;5341792;26;20350;-78
2024/04/11 09:52:44;;;;;;;64.85;61.75;;;19.00;99.90;;;;;;5345273;26;20041;-78
2024/04/11 09:55:15;;;;;;;44.20;42.10;;;19.30;99.90;;;;;;5347946;26;20037;-78
2024/04/11 09:57:43;;;;;;;49.85;47.40;;;19.40;99.90;;;;;;5318653;26;20489;-78
2024/04/11 10:00:09;;;;;;;69.13;65.72;;;19.50;99.90;;;;;;5317552;26;20021;-77
2024/04/11 10:02:36;;;;;;;1999.90;999.90;;;19.60;99.90;;;;;;5347174;26;20154;-78
2024/04/11 10:05:05;;;;;;;1999.90;999.90;;;19.80;99.90;;;;;;5346310;26;20454;-78
2024/04/11 10:07:41;;;;;;;1999.90;999.90;;;19.90;99.90;;;;;;5314094;26;20029;-77
2024/04/11 10:10:27;;;;;;;1999.90;999.90;;;19.90;99.90;;;;;;5313877;26;20022;-79
2024/04/11 10:12:58;;;;;;;1999.90;999.90;;;19.80;99.90;;;;;;5340188;26;20470;-78
2024/04/11 10:15:29;;;;;;;1999.90;999.90;;;19.80;99.90;;;;;;5338542;26;20359;-79
2024/04/11 10:18:11;;;;;;;1999.90;999.90;;;19.90;99.90;;;;;;5313364;26;20029;-77
2024/04/11 10:21:05;;;;;;;1999.90;999.90;;;20.00;99.90;;;;;;5312463;26;20034;-79
2024/04/11 10:23:37;;;;;;;1999.90;999.90;;;20.20;99.90;;;;;;5314210;26;20479;-78
2024/04/11 10:26:06;;;;;;;1999.90;999.90;;;20.30;99.90;;;;;;5313676;26;20363;-77
2024/04/11 10:28:41;;;;;;;1999.90;999.90;;;20.40;99.90;;;;;;5311005;27;20026;-78
2024/04/11 10:31:17;;;;;;;1999.90;999.90;;;20.40;99.90;;;;;;5312666;26;20030;-78
2024/04/11 10:33:58;;;;;;;1999.90;999.90;;;20.50;99.90;;;;;;5313040;27;20026;-78
2024/04/11 10:36:32;;;;;;;1999.90;999.90;;;20.60;99.90;;;;;;5322522;26;20032;-78
2024/04/11 10:38:59;;;;;;;1999.90;999.90;;;20.60;99.90;;;;;;5346791;26;20033;-78
2024/04/11 10:41:26;;;;;;;1999.90;999.90;;;20.60;99.90;;;;;;5328904;26;20034;-78
2024/04/11 10:43:52;;;;;;;1999.90;999.90;;;20.20;99.90;;;;;;5312973;27;20031;-78
2024/04/11 10:46:21;;;;;;;1999.90;999.90;;;20.20;99.90;;;;;;5321463;26;20421;-78
2024/04/11 10:48:49;;;;;;;1999.90;999.90;;;20.20;99.90;;;;;;5347114;26;20025;-78
2024/04/11 10:51:15;;;;;;;1999.90;999.90;;;20.30;99.90;;;;;;5345069;26;20032;-77
2024/04/11 10:53:54;;;;;;;1999.90;999.90;;;20.50;99.90;;;;;;5347312;26;20028;-78
2024/04/11 10:56:23;;;;;;;1999.90;999.90;;;20.60;99.90;;;;;;5330133;26;20038;-78
2024/04/11 10:58:53;;;;;;;1999.90;999.90;;;20.70;99.90;;;;;;5310421;27;20025;-78
2024/04/11 11:01:26;;;;;;;1999.90;999.90;;;20.90;99.90;;;;;;5309640;26;20374;-78
2024/04/11 11:03:57;;;;;;;1999.90;999.90;;;21.00;99.90;;;;;;5283464;27;20461;-79
2024/04/11 11:06:24;;;;;;;1999.90;999.90;;;21.20;99.90;;;;;;5312069;26;20038;-78
2024/04/11 11:08:54;;;;;;;1999.90;999.90;;;21.20;99.90;;;;;;5311211;26;20466;-78
2024/04/11 11:11:23;;;;;;;1999.90;999.90;;;21.20;99.90;;;;;;5312012;26;20145;-78
2024/04/11 11:13:54;;;;;;;1999.90;999.90;;;21.30;99.90;;;;;;5313184;26;20037;-78
2024/04/11 11:16:21;;;;;;;1999.90;999.90;;;21.40;99.90;;;;;;5311648;26;20374;-79
2024/04/11 11:18:51;;;;;;;1999.90;999.90;;;21.40;99.90;;;;;;5313626;26;20033;-78
2024/04/11 11:21:22;;;;;;;1999.90;999.90;;;21.50;99.90;;;;;;5312551;26;20470;-79
2024/04/11 11:23:59;;;;;;;1999.90;999.90;;;21.50;99.90;;;;;;5312500;26;20026;-79
2024/04/11 11:26:35;;;;;;;1999.90;999.90;;;21.60;99.90;;;;;;5309731;26;20033;-78
2024/04/11 11:29:06;;;;;;;1999.90;999.90;;;21.70;99.90;;;;;;5311902;26;20021;-78
2024/04/11 11:31:36;;;;;;;1999.90;999.90;;;21.70;99.90;;;;;;5311781;26;20042;-78
2024/04/11 11:34:09;;;;;;;1999.90;999.90;;;21.70;99.90;;;;;;5313298;26;20025;-78
2024/04/11 11:36:40;;;;;;;1999.90;999.90;;;21.80;99.90;;;;;;5319240;26;20029;-77
2024/04/11 11:39:17;;;;;;;1999.90;999.90;;;21.80;99.90;;;;;;5312281;26;20028;-78
2024/04/11 11:42:00;;;;;;;1999.90;999.90;;;21.90;99.90;;;;;;5311758;26;20446;-78
2024/04/11 11:44:34;;;;;;;1999.90;999.90;;;21.90;99.90;;;;;;5310070;27;20033;-78
2024/04/11 11:47:06;;;;;;;1999.90;999.90;;;21.90;99.90;;;;;;5332268;26;20376;-78
2024/04/11 11:49:35;;;;;;;1999.90;999.90;;;22.00;99.90;;;;;;5346531;26;20028;-79
2024/04/11 11:52:03;;;;;;;1999.90;999.90;;;22.10;99.90;;;;;;5346067;26;20029;-78
2024/04/11 11:54:34;;;;;;;1999.90;999.90;;;22.10;99.90;;;;;;5346265;26;20029;-78
2024/04/11 11:57:17;;;;;;;1999.90;999.90;;;22.10;99.90;;;;;;5319677;26;20042;-78
2024/04/11 11:59:53;;;;;;;1999.90;999.90;;;22.10;99.90;;;;;;5312813;26;20094;-77
2024/04/11 12:02:23;;;;;;;1999.90;999.90;;;22.10;99.90;;;;;;5310679;26;20486;-78
2024/04/11 12:04:52;;;;;;;1999.90;999.90;;;22.20;99.90;;;;;;5312721;26;20373;-78
2024/04/11 12:07:19;;;;;;;1999.90;999.90;;;22.30;99.90;;;;;;5312378;26;20022;-78
2024/04/11 12:09:56;;;;;;;1999.90;999.90;;;22.40;99.90;;;;;;5311682;27;20503;-78
2024/04/11 12:12:23;;;;;;;1999.90;999.90;;;22.30;99.90;;;;;;5309694;26;20030;-78
2024/04/11 12:14:55;;;;;;;1999.90;999.90;;;22.40;99.90;;;;;;5311680;26;20025;-78
2024/04/11 12:17:26;;;;;;;1999.90;999.90;;;22.50;99.90;;;;;;5309315;26;20033;-77
2024/04/11 12:20:02;;;;;;;;;;;22.50;99.90;;;;;;5312630;26;20029;-78
2024/04/11 12:22:33;;;;;;;1999.90;999.90;;;22.50;99.90;;;;;;5312333;26;20296;-78
2024/04/11 12:25:02;;;;;;;1999.90;999.90;;;22.60;99.90;;;;;;5312416;26;20377;-78
2024/04/11 12:27:29;;;;;;;1999.90;999.90;;;22.60;99.90;;;;;;5308826;26;20034;-78
2024/04/11 12:30:01;;;;;;;1999.90;999.90;;;22.70;99.90;;;;;;5311189;26;20026;-78